Terminal Aerodrome Forecast
Issued by NWS

Home | Current Version | Previous Version | Text Only | Print | Product List | Glossary Off
Versions: 1 2 3 4 5 6 7 8 9 10 11 12 13

000
FTUS43 KTOP 142300
TAFFOE
TAF
KFOE 142323Z 1500/1524 34017G24KT P6SM SKC
     FM150100 VRB02KT P6SM SCT060
     FM151900 20014G18KT P6SM FEW200=

USA.gov is the U.S. government's official web portal to all federal, state and local government web resources and services.